createdAt,value
2023-08-15T00:03:07.644Z,21.8
2023-08-15T00:13:07.746Z,21.7
2023-08-15T00:23:07.943Z,21.6
2023-08-15T00:33:08.174Z,21.5
2023-08-15T00:43:08.337Z,21.4
2023-08-15T00:53:08.519Z,21.3
2023-08-15T01:03:08.819Z,21.1
2023-08-15T01:13:08.908Z,21
2023-08-15T01:23:09.123Z,20.9
2023-08-15T01:33:09.338Z,20.8
2023-08-15T01:43:09.487Z,20.6
2023-08-15T01:53:09.683Z,20.5
2023-08-15T02:03:09.901Z,20.5
2023-08-15T02:13:10.069Z,20.5
2023-08-15T02:23:10.261Z,20.4
2023-08-15T02:33:10.471Z,20.5
2023-08-15T02:43:10.678Z,20.8
2023-08-15T02:53:10.843Z,21
2023-08-15T03:03:11.129Z,21
2023-08-15T03:13:11.237Z,21.1
2023-08-15T03:23:11.418Z,21.2
2023-08-15T03:53:12.026Z,21.3
2023-08-15T04:03:12.200Z,21.2
2023-08-15T04:13:12.453Z,21.1
2023-08-15T04:23:12.583Z,21
2023-08-15T04:33:12.845Z,20.9
2023-08-15T04:43:12.976Z,20.8
2023-08-15T04:53:13.189Z,20.9
2023-08-15T05:03:13.459Z,20.9
2023-08-15T05:13:13.565Z,20.9
2023-08-15T05:23:13.765Z,21
2023-08-15T05:33:13.948Z,21
2023-08-15T05:43:14.156Z,21
2023-08-15T05:53:14.339Z,21
2023-08-15T06:03:14.656Z,21
2023-08-15T06:13:14.723Z,21
2023-08-15T06:33:15.129Z,20.9
2023-08-15T06:43:15.353Z,20.8
2023-08-15T06:53:15.498Z,20.7
2023-08-15T07:03:15.776Z,20.8
2023-08-15T07:13:15.880Z,20.9
2023-08-15T07:23:16.077Z,20.9
2023-08-15T07:33:16.290Z,21.1
2023-08-15T07:43:16.465Z,21.4
2023-08-15T07:53:16.658Z,21.5
2023-08-15T08:03:16.894Z,22
2023-08-15T08:13:17.682Z,22.3
2023-08-15T08:23:17.237Z,22.6
2023-08-15T08:33:17.440Z,22.7
2023-08-15T08:43:17.642Z,22.5
2023-08-15T08:53:17.829Z,23
2023-08-15T09:03:18.068Z,23.5
2023-08-15T09:13:18.217Z,23.6
2023-08-15T09:23:18.412Z,24.1
2023-08-15T09:33:18.612Z,24.2
2023-08-15T09:43:18.795Z,24.2
2023-08-15T09:53:18.989Z,24.2
2023-08-15T10:03:19.207Z,24.2
2023-08-15T10:13:19.402Z,24.6
2023-08-15T10:23:19.583Z,24.8
2023-08-15T10:33:19.774Z,25
2023-08-15T10:43:19.938Z,24.9
2023-08-15T10:53:20.141Z,25.2
2023-08-15T11:03:20.362Z,25.1
2023-08-15T11:13:20.532Z,25.6
2023-08-15T11:23:20.727Z,25.7
2023-08-15T11:43:21.129Z,25.3
2023-08-15T12:13:21.701Z,25.7
2023-08-15T12:43:22.283Z,26.7
2023-08-15T12:53:22.456Z,27
2023-08-15T13:03:22.693Z,26.4
2023-08-15T13:23:23.045Z,25.9
2023-08-15T14:03:23.878Z,25.4
2023-08-15T14:13:24.015Z,25.4
2023-08-15T14:23:24.240Z,25.5
2023-08-15T14:33:24.397Z,25.8
2023-08-15T14:43:24.619Z,26.3
2023-08-15T14:53:24.799Z,26.1
2023-08-15T15:03:25.014Z,26.1
2023-08-15T15:13:25.173Z,26.7
2023-08-15T15:23:25.378Z,26.9
2023-08-15T15:33:25.552Z,27.3
2023-08-15T15:43:25.761Z,27.4
2023-08-15T15:53:25.949Z,27.2
2023-08-15T16:13:26.336Z,27.6
2023-08-15T16:23:26.550Z,27.4
2023-08-15T16:33:26.729Z,27.7
2023-08-15T16:43:26.911Z,27.3
2023-08-15T16:53:27.133Z,26.8
2023-08-15T17:03:27.426Z,27.2
2023-08-15T17:13:27.496Z,27.5
2023-08-15T17:23:27.707Z,27.1
2023-08-15T17:33:27.871Z,26.4
2023-08-15T17:43:28.144Z,25.9
2023-08-15T17:53:28.275Z,25.7
2023-08-15T18:03:28.505Z,25.4
2023-08-15T18:13:28.666Z,25.2
2023-08-15T18:23:28.880Z,25
2023-08-15T18:33:29.084Z,24.7
2023-08-15T18:43:29.233Z,24.2
2023-08-15T18:53:29.416Z,23.8
2023-08-15T19:03:29.684Z,23.4
2023-08-15T19:13:29.817Z,23.1
2023-08-15T19:23:30.020Z,22.9
2023-08-15T19:33:30.234Z,22.8
2023-08-15T19:43:30.405Z,22.6
2023-08-15T19:53:30.611Z,22.5
2023-08-15T20:13:31.000Z,22.3
2023-08-15T20:23:31.204Z,22.1
2023-08-15T20:33:31.361Z,22
2023-08-15T20:43:31.558Z,21.8
2023-08-15T20:53:31.757Z,21.6
2023-08-15T21:03:31.957Z,21.4
2023-08-15T21:13:32.133Z,21.1
2023-08-15T21:23:32.337Z,21
2023-08-15T21:33:32.634Z,20.8
2023-08-15T21:43:32.725Z,20.6
2023-08-15T21:53:32.902Z,20.5
2023-08-15T22:03:33.216Z,20.4
2023-08-15T22:13:33.317Z,20.3
2023-08-15T22:23:33.523Z,20.2
2023-08-15T22:33:33.724Z,20
2023-08-15T22:43:33.890Z,20
2023-08-15T22:53:34.083Z,19.9
2023-08-15T23:03:34.276Z,19.8
2023-08-15T23:13:34.558Z,19.7
2023-08-15T23:23:34.707Z,19.7
2023-08-15T23:33:34.871Z,19.7
2023-08-15T23:43:35.054Z,19.7
2023-08-15T23:53:35.249Z,19.7
